< < Back
Terminal Aerodrome Forecast


Current Version              Previous Versions:   1  2  3  4  5  6  7  8  9  

Terminal Aerodrome Forecast

245
FTUS44 KMOB 280500
TAFPNS
TAF
KPNS 280540Z 2806/2906 36007KT P6SM SKC
     FM281600 05007KT P6SM SKC
     FM282000 11006KT P6SM SKC=



Latest METAR

605
SAUS70 KWBC 281200 RRM
MTRPNS
METAR KPNS 281153Z 01005KT 10SM CLR 02/M01 A3041 RMK AO2 SLP300
T00221006 10056 20022 53001


USA.gov is the U.S. government's official web portal to all federal, state and local government web resources and services.